sensor_id;sensor_type;location;lat;lon;timestamp;pressure;altitude;pressure_sealevel;temperature
64790;BMP280;51223;51.816;5.862;2022-09-21T00:01:19;102601.94;;;15.63
64790;BMP280;51223;51.816;5.862;2022-09-21T00:03:46;102605.97;;;15.66
64790;BMP280;51223;51.816;5.862;2022-09-21T00:06:16;102611.66;;;15.62
64790;BMP280;51223;51.816;5.862;2022-09-21T00:08:44;102606.00;;;15.62
64790;BMP280;51223;51.816;5.862;2022-09-21T00:11:16;102603.97;;;15.63
64790;BMP280;51223;51.816;5.862;2022-09-21T00:13:43;102600.75;;;15.61
64790;BMP280;51223;51.816;5.862;2022-09-21T00:16:14;102602.34;;;15.62
64790;BMP280;51223;51.816;5.862;2022-09-21T00:18:41;102604.28;;;15.68
64790;BMP280;51223;51.816;5.862;2022-09-21T00:21:10;102608.78;;;15.66
64790;BMP280;51223;51.816;5.862;2022-09-21T00:23:37;102606.31;;;15.68
64790;BMP280;51223;51.816;5.862;2022-09-21T00:26:05;102599.53;;;15.62
64790;BMP280;51223;51.816;5.862;2022-09-21T00:28:31;102606.25;;;15.71
64790;BMP280;51223;51.816;5.862;2022-09-21T00:31:01;102604.72;;;15.93
64790;BMP280;51223;51.816;5.862;2022-09-21T00:33:27;102591.84;;;15.89
64790;BMP280;51223;51.816;5.862;2022-09-21T00:35:53;102598.59;;;15.98
64790;BMP280;51223;51.816;5.862;2022-09-21T00:38:18;102605.16;;;15.31
64790;BMP280;51223;51.816;5.862;2022-09-21T00:40:44;102610.13;;;15.20
64790;BMP280;51223;51.816;5.862;2022-09-21T00:43:15;102608.56;;;15.80
64790;BMP280;51223;51.816;5.862;2022-09-21T00:45:43;102609.22;;;15.64
64790;BMP280;51223;51.816;5.862;2022-09-21T00:48:11;102607.66;;;15.60
64790;BMP280;51223;51.816;5.862;2022-09-21T00:50:43;102610.09;;;15.24
64790;BMP280;51223;51.816;5.862;2022-09-21T00:53:10;102602.19;;;15.04
64790;BMP280;51223;51.816;5.862;2022-09-21T00:55:40;102609.94;;;15.34
64790;BMP280;51223;51.816;5.862;2022-09-21T00:58:12;102608.41;;;15.64
64790;BMP280;51223;51.816;5.862;2022-09-21T01:00:40;102612.72;;;15.72
64790;BMP280;51223;51.816;5.862;2022-09-21T01:03:07;102611.13;;;15.71
64790;BMP280;51223;51.816;5.862;2022-09-21T01:05:34;102625.50;;;15.19
64790;BMP280;51223;51.816;5.862;2022-09-21T01:08:03;102617.75;;;15.27
64790;BMP280;51223;51.816;5.862;2022-09-21T01:10:40;102623.41;;;15.23
64790;BMP280;51223;51.816;5.862;2022-09-21T01:13:38;102622.16;;;15.28
64790;BMP280;51223;51.816;5.862;2022-09-21T01:16:22;102622.00;;;15.38
64790;BMP280;51223;51.816;5.862;2022-09-21T01:21:33;102616.72;;;15.06
64790;BMP280;51223;51.816;5.862;2022-09-21T01:27:03;102620.63;;;15.20
64790;BMP280;51223;51.816;5.862;2022-09-21T01:29:54;102617.41;;;15.21
64790;BMP280;51223;51.816;5.862;2022-09-21T01:32:35;102619.66;;;15.33
64790;BMP280;51223;51.816;5.862;2022-09-21T01:35:41;102623.34;;;15.30
64790;BMP280;51223;51.816;5.862;2022-09-21T01:38:29;102611.63;;;15.28
64790;BMP280;51223;51.816;5.862;2022-09-21T01:40:57;102619.78;;;15.23
64790;BMP280;51223;51.816;5.862;2022-09-21T01:43:30;102618.63;;;15.20
64790;BMP280;51223;51.816;5.862;2022-09-21T01:45:57;102620.13;;;15.28
64790;BMP280;51223;51.816;5.862;2022-09-21T01:48:30;102617.94;;;15.05
64790;BMP280;51223;51.816;5.862;2022-09-21T01:50:58;102623.56;;;15.05
64790;BMP280;51223;51.816;5.862;2022-09-21T01:53:32;102622.66;;;15.19
64790;BMP280;51223;51.816;5.862;2022-09-21T01:58:54;102622.25;;;15.17
64790;BMP280;51223;51.816;5.862;2022-09-21T02:01:26;102617.81;;;15.16
64790;BMP280;51223;51.816;5.862;2022-09-21T02:04:00;102608.63;;;15.08
64790;BMP280;51223;51.816;5.862;2022-09-21T02:06:28;102608.31;;;14.99
64790;BMP280;51223;51.816;5.862;2022-09-21T02:08:55;102611.16;;;14.96
64790;BMP280;51223;51.816;5.862;2022-09-21T02:11:21;102612.38;;;14.95
64790;BMP280;51223;51.816;5.862;2022-09-21T02:13:49;102612.66;;;15.07
64790;BMP280;51223;51.816;5.862;2022-09-21T02:16:31;102610.38;;;14.95
64790;BMP280;51223;51.816;5.862;2022-09-21T02:22:01;102615.88;;;14.68
64790;BMP280;51223;51.816;5.862;2022-09-21T02:25:03;102604.69;;;14.54
64790;BMP280;51223;51.816;5.862;2022-09-21T02:27:51;102611.69;;;14.32
64790;BMP280;51223;51.816;5.862;2022-09-21T02:30:20;102611.25;;;14.37
64790;BMP280;51223;51.816;5.862;2022-09-21T02:33:12;102611.53;;;14.53
64790;BMP280;51223;51.816;5.862;2022-09-21T02:35:40;102613.66;;;14.42
64790;BMP280;51223;51.816;5.862;2022-09-21T02:40:53;102608.19;;;14.14
64790;BMP280;51223;51.816;5.862;2022-09-21T02:43:25;102606.06;;;14.32
64790;BMP280;51223;51.816;5.862;2022-09-21T02:45:56;102600.25;;;14.53
64790;BMP280;51223;51.816;5.862;2022-09-21T02:48:31;102599.59;;;14.31
64790;BMP280;51223;51.816;5.862;2022-09-21T02:51:03;102602.88;;;14.26
64790;BMP280;51223;51.816;5.862;2022-09-21T02:53:33;102599.34;;;14.12
64790;BMP280;51223;51.816;5.862;2022-09-21T02:56:02;102596.38;;;14.33
64790;BMP280;51223;51.816;5.862;2022-09-21T02:58:36;102609.41;;;14.13
64790;BMP280;51223;51.816;5.862;2022-09-21T03:01:04;102607.34;;;14.17
64790;BMP280;51223;51.816;5.862;2022-09-21T03:03:33;102603.81;;;14.06
64790;BMP280;51223;51.816;5.862;2022-09-21T03:05:59;102602.19;;;14.05
64790;BMP280;51223;51.816;5.862;2022-09-21T03:08:27;102603.81;;;14.06
64790;BMP280;51223;51.816;5.862;2022-09-21T03:10:52;102602.19;;;13.97
64790;BMP280;51223;51.816;5.862;2022-09-21T03:13:18;102609.31;;;14.27
64790;BMP280;51223;51.816;5.862;2022-09-21T03:15:45;102600.81;;;14.30
64790;BMP280;51223;51.816;5.862;2022-09-21T03:18:12;102604.22;;;14.08
64790;BMP280;51223;51.816;5.862;2022-09-21T03:20:39;102615.84;;;14.13
64790;BMP280;51223;51.816;5.862;2022-09-21T03:23:06;102615.38;;;14.22
64790;BMP280;51223;51.816;5.862;2022-09-21T03:25:32;102615.81;;;14.20
64790;BMP280;51223;51.816;5.862;2022-09-21T03:27:58;102619.00;;;14.26
64790;BMP280;51223;51.816;5.862;2022-09-21T03:30:25;102619.03;;;14.19
64790;BMP280;51223;51.816;5.862;2022-09-21T03:32:52;102616.28;;;14.08
64790;BMP280;51223;51.816;5.862;2022-09-21T03:35:20;102613.03;;;14.13
64790;BMP280;51223;51.816;5.862;2022-09-21T03:37:47;102615.94;;;13.95
64790;BMP280;51223;51.816;5.862;2022-09-21T03:40:13;102617.66;;;13.75
64790;BMP280;51223;51.816;5.862;2022-09-21T03:42:40;102616.75;;;13.92
64790;BMP280;51223;51.816;5.862;2022-09-21T03:45:07;102621.69;;;13.74
64790;BMP280;51223;51.816;5.862;2022-09-21T03:47:33;102620.16;;;13.59
64790;BMP280;51223;51.816;5.862;2022-09-21T03:49:59;102626.13;;;13.68
64790;BMP280;51223;51.816;5.862;2022-09-21T03:52:25;102627.78;;;13.62
64790;BMP280;51223;51.816;5.862;2022-09-21T03:54:51;102622.13;;;13.69
64790;BMP280;51223;51.816;5.862;2022-09-21T03:57:17;102624.97;;;13.58
64790;BMP280;51223;51.816;5.862;2022-09-21T03:59:45;102626.50;;;13.77
64790;BMP280;51223;51.816;5.862;2022-09-21T04:02:11;102624.97;;;13.51
64790;BMP280;51223;51.816;5.862;2022-09-21T04:04:37;102625.00;;;13.44
64790;BMP280;51223;51.816;5.862;2022-09-21T04:07:03;102624.28;;;12.94
64790;BMP280;51223;51.816;5.862;2022-09-21T04:09:29;102627.81;;;13.44
64790;BMP280;51223;51.816;5.862;2022-09-21T04:11:54;102625.06;;;13.27
64790;BMP280;51223;51.816;5.862;2022-09-21T04:14:20;102625.44;;;13.18
64790;BMP280;51223;51.816;5.862;2022-09-21T04:16:48;102617.00;;;13.18
64790;BMP280;51223;51.816;5.862;2022-09-21T04:19:17;102621.06;;;13.21
64790;BMP280;51223;51.816;5.862;2022-09-21T04:21:43;102618.63;;;13.23
64790;BMP280;51223;51.816;5.862;2022-09-21T04:24:09;102621.44;;;13.01
64790;BMP280;51223;51.816;5.862;2022-09-21T04:26:35;102619.00;;;13.21
64790;BMP280;51223;51.816;5.862;2022-09-21T04:29:01;102621.00;;;13.28
64790;BMP280;51223;51.816;5.862;2022-09-21T04:31:28;102622.59;;;13.36
64790;BMP280;51223;51.816;5.862;2022-09-21T04:33:55;102636.31;;;13.09
64790;BMP280;51223;51.816;5.862;2022-09-21T04:36:22;102627.50;;;12.61
64790;BMP280;51223;51.816;5.862;2022-09-21T04:38:49;102628.72;;;12.81
64790;BMP280;51223;51.816;5.862;2022-09-21T04:41:15;102632.31;;;12.71
64790;BMP280;51223;51.816;5.862;2022-09-21T04:43:43;102635.53;;;12.91
64790;BMP280;51223;51.816;5.862;2022-09-21T04:46:12;102636.72;;;13.11
64790;BMP280;51223;51.816;5.862;2022-09-21T04:48:38;102645.97;;;13.15
64790;BMP280;51223;51.816;5.862;2022-09-21T04:51:05;102648.44;;;12.81
64790;BMP280;51223;51.816;5.862;2022-09-21T04:53:33;102645.63;;;12.81
64790;BMP280;51223;51.816;5.862;2022-09-21T04:55:59;102644.41;;;13.07
64790;BMP280;51223;51.816;5.862;2022-09-21T04:58:25;102652.84;;;13.14
64790;BMP280;51223;51.816;5.862;2022-09-21T05:00:53;102655.25;;;12.98
64790;BMP280;51223;51.816;5.862;2022-09-21T05:03:23;102658.88;;;12.91
64790;BMP280;51223;51.816;5.862;2022-09-21T05:05:51;102656.47;;;12.86
64790;BMP280;51223;51.816;5.862;2022-09-21T05:08:18;102649.59;;;12.66
64790;BMP280;51223;51.816;5.862;2022-09-21T05:11:09;102653.66;;;12.79
64790;BMP280;51223;51.816;5.862;2022-09-21T05:13:35;102656.09;;;12.88
64790;BMP280;51223;51.816;5.862;2022-09-21T05:16:01;102657.28;;;12.83
64790;BMP280;51223;51.816;5.862;2022-09-21T05:18:27;102662.44;;;12.46
64790;BMP280;51223;51.816;5.862;2022-09-21T05:20:58;102661.25;;;12.64
64790;BMP280;51223;51.816;5.862;2022-09-21T05:23:25;102657.66;;;12.78
64790;BMP280;51223;51.816;5.862;2022-09-21T05:25:51;102657.22;;;12.69
64790;BMP280;51223;51.816;5.862;2022-09-21T05:28:18;102658.72;;;12.13
64790;BMP280;51223;51.816;5.862;2022-09-21T05:30:47;102661.63;;;12.41
64790;BMP280;51223;51.816;5.862;2022-09-21T05:33:18;102664.47;;;12.63
64790;BMP280;51223;51.816;5.862;2022-09-21T05:36:03;102662.00;;;12.36
64790;BMP280;51223;51.816;5.862;2022-09-21T05:38:31;102671.69;;;12.39
64790;BMP280;51223;51.816;5.862;2022-09-21T05:40:57;102671.72;;;12.57
64790;BMP280;51223;51.816;5.862;2022-09-21T05:43:24;102673.22;;;12.29
64790;BMP280;51223;51.816;5.862;2022-09-21T05:45:59;102670.91;;;12.46
64790;BMP280;51223;51.816;5.862;2022-09-21T05:48:32;102670.47;;;12.54
64790;BMP280;51223;51.816;5.862;2022-09-21T05:51:19;102674.53;;;12.60
64790;BMP280;51223;51.816;5.862;2022-09-21T05:56:54;102686.59;;;12.64
64790;BMP280;51223;51.816;5.862;2022-09-21T05:59:51;102686.59;;;12.75
64790;BMP280;51223;51.816;5.862;2022-09-21T06:04:52;102691.78;;;12.45
64790;BMP280;51223;51.816;5.862;2022-09-21T06:07:20;102697.50;;;12.80
64790;BMP280;51223;51.816;5.862;2022-09-21T06:09:46;102699.88;;;12.64
64790;BMP280;51223;51.816;5.862;2022-09-21T06:12:12;102698.63;;;12.40
64790;BMP280;51223;51.816;5.862;2022-09-21T06:14:37;102701.06;;;12.70
64790;BMP280;51223;51.816;5.862;2022-09-21T06:17:03;102701.53;;;12.82
64790;BMP280;51223;51.816;5.862;2022-09-21T06:19:29;102710.78;;;12.87
64790;BMP280;51223;51.816;5.862;2022-09-21T06:21:55;102712.66;;;12.33
64790;BMP280;51223;51.816;5.862;2022-09-21T06:24:21;102711.16;;;12.78
64790;BMP280;51223;51.816;5.862;2022-09-21T06:26:46;102713.13;;;12.56
64790;BMP280;51223;51.816;5.862;2022-09-21T06:29:12;102711.13;;;12.71
64790;BMP280;51223;51.816;5.862;2022-09-21T06:31:38;102709.19;;;12.86
64790;BMP280;51223;51.816;5.862;2022-09-21T06:34:04;102710.41;;;13.24
64790;BMP280;51223;51.816;5.862;2022-09-21T06:36:30;102713.59;;;13.11
64790;BMP280;51223;51.816;5.862;2022-09-21T06:38:56;102711.63;;;13.19
64790;BMP280;51223;51.816;5.862;2022-09-21T06:41:21;102707.56;;;13.09
64790;BMP280;51223;51.816;5.862;2022-09-21T06:43:47;102707.16;;;13.36
64790;BMP280;51223;51.816;5.862;2022-09-21T06:46:13;102715.16;;;12.77
64790;BMP280;51223;51.816;5.862;2022-09-21T06:48:39;102720.84;;;13.16
64790;BMP280;51223;51.816;5.862;2022-09-21T06:51:05;102711.19;;;13.45
64790;BMP280;51223;51.816;5.862;2022-09-21T06:53:32;102699.06;;;13.70
64790;BMP280;51223;51.816;5.862;2022-09-21T06:56:16;102703.84;;;13.83
64790;BMP280;51223;51.816;5.862;2022-09-21T06:58:41;102708.72;;;13.69
64790;BMP280;51223;51.816;5.862;2022-09-21T07:01:09;102705.88;;;13.72
64790;BMP280;51223;51.816;5.862;2022-09-21T07:03:36;102703.50;;;13.64
64790;BMP280;51223;51.816;5.862;2022-09-21T07:06:02;102703.06;;;13.76
64790;BMP280;51223;51.816;5.862;2022-09-21T07:08:28;102709.84;;;14.00
64790;BMP280;51223;51.816;5.862;2022-09-21T07:10:57;102709.69;;;14.28
64790;BMP280;51223;51.816;5.862;2022-09-21T07:13:24;102712.91;;;14.30
64790;BMP280;51223;51.816;5.862;2022-09-21T07:15:50;102713.34;;;14.25
64790;BMP280;51223;51.816;5.862;2022-09-21T07:18:16;102706.22;;;13.99
64790;BMP280;51223;51.816;5.862;2022-09-21T07:20:42;102707.66;;;14.28
64790;BMP280;51223;51.816;5.862;2022-09-21T07:23:12;102711.66;;;14.38
64790;BMP280;51223;51.816;5.862;2022-09-21T07:25:44;102714.16;;;14.22
64790;BMP280;51223;51.816;5.862;2022-09-21T07:28:11;102710.81;;;14.48
64790;BMP280;51223;51.816;5.862;2022-09-21T07:30:38;102709.19;;;14.47
64790;BMP280;51223;51.816;5.862;2022-09-21T07:33:05;102718.84;;;14.53
64790;BMP280;51223;51.816;5.862;2022-09-21T07:35:32;102713.75;;;14.27
64790;BMP280;51223;51.816;5.862;2022-09-21T07:37:58;102717.13;;;14.66
64790;BMP280;51223;51.816;5.862;2022-09-21T07:40:24;102712.47;;;14.42
64790;BMP280;51223;51.816;5.862;2022-09-21T07:42:50;102713.00;;;14.82
64790;BMP280;51223;51.816;5.862;2022-09-21T07:45:16;102706.97;;;14.76
64790;BMP280;51223;51.816;5.862;2022-09-21T07:47:42;102714.06;;;14.98
64790;BMP280;51223;51.816;5.862;2022-09-21T07:50:08;102709.38;;;15.29
64790;BMP280;51223;51.816;5.862;2022-09-21T07:52:34;102709.56;;;15.04
64790;BMP280;51223;51.816;5.862;2022-09-21T07:55:00;102708.22;;;15.61
64790;BMP280;51223;51.816;5.862;2022-09-21T07:57:26;102710.81;;;15.82
64790;BMP280;51223;51.816;5.862;2022-09-21T08:00:11;102710.03;;;15.78
64790;BMP280;51223;51.816;5.862;2022-09-21T08:02:37;102704.63;;;15.56
64790;BMP280;51223;51.816;5.862;2022-09-21T08:05:03;102711.25;;;15.80
64790;BMP280;51223;51.816;5.862;2022-09-21T08:07:29;102708.22;;;15.61
64790;BMP280;51223;51.816;5.862;2022-09-21T08:09:54;102704.56;;;15.94
64790;BMP280;51223;51.816;5.862;2022-09-21T08:12:20;102705.75;;;16.27
64790;BMP280;51223;51.816;5.862;2022-09-21T08:14:46;102701.34;;;16.53
64790;BMP280;51223;51.816;5.862;2022-09-21T08:17:13;102701.94;;;16.14
64790;BMP280;51223;51.816;5.862;2022-09-21T08:19:39;102693.03;;;16.12
64790;BMP280;51223;51.816;5.862;2022-09-21T08:22:05;102707.69;;;16.07
64790;BMP280;51223;51.816;5.862;2022-09-21T08:24:31;102699.56;;;16.09
64790;BMP280;51223;51.816;5.862;2022-09-21T08:26:58;102705.25;;;16.05
64790;BMP280;51223;51.816;5.862;2022-09-21T08:29:24;102709.34;;;16.31
64790;BMP280;51223;51.816;5.862;2022-09-21T08:31:50;102702.03;;;16.33
64790;BMP280;51223;51.816;5.862;2022-09-21T08:34:18;102695.47;;;16.67
64790;BMP280;51223;51.816;5.862;2022-09-21T08:36:44;102704.78;;;16.41
64790;BMP280;51223;51.816;5.862;2022-09-21T08:39:11;102708.91;;;16.86
64790;BMP280;51223;51.816;5.862;2022-09-21T08:42:01;102703.25;;;16.59
64790;BMP280;51223;51.816;5.862;2022-09-21T08:44:41;102700.16;;;16.77
64790;BMP280;51223;51.816;5.862;2022-09-21T08:47:14;102704.81;;;17.34
64790;BMP280;51223;51.816;5.862;2022-09-21T08:49:46;102706.81;;;16.90
64790;BMP280;51223;51.816;5.862;2022-09-21T08:52:15;102704.47;;;16.85
64790;BMP280;51223;51.816;5.862;2022-09-21T08:54:50;102706.47;;;17.08
64790;BMP280;51223;51.816;5.862;2022-09-21T08:57:18;102708.16;;;17.68
64790;BMP280;51223;51.816;5.862;2022-09-21T08:59:46;102711.00;;;17.68
64790;BMP280;51223;51.816;5.862;2022-09-21T09:11:04;102709.88;;;17.66
64790;BMP280;51223;51.816;5.862;2022-09-21T09:14:10;102717.69;;;17.78
64790;BMP280;51223;51.816;5.862;2022-09-21T09:19:25;102717.28;;;17.59
64790;BMP280;51223;51.816;5.862;2022-09-21T09:21:54;102724.34;;;17.71
64790;BMP280;51223;51.816;5.862;2022-09-21T09:27:14;102727.38;;;17.41
64790;BMP280;51223;51.816;5.862;2022-09-21T09:30:02;102723.72;;;16.97
64790;BMP280;51223;51.816;5.862;2022-09-21T09:32:35;102726.31;;;17.08
64790;BMP280;51223;51.816;5.862;2022-09-21T09:35:29;102715.75;;;17.75
64790;BMP280;51223;51.816;5.862;2022-09-21T09:44:09;102721.78;;;18.48
64790;BMP280;51223;51.816;5.862;2022-09-21T09:49:25;102726.66;;;18.97
64790;BMP280;51223;51.816;5.862;2022-09-21T09:51:54;102722.22;;;19.12
64790;BMP280;51223;51.816;5.862;2022-09-21T09:54:23;102718.56;;;18.95
64790;BMP280;51223;51.816;5.862;2022-09-21T09:56:49;102717.28;;;18.51
64790;BMP280;51223;51.816;5.862;2022-09-21T09:59:34;102717.88;;;18.75
64790;BMP280;51223;51.816;5.862;2022-09-21T10:02:17;102712.81;;;18.34
64790;BMP280;51223;51.816;5.862;2022-09-21T10:07:39;102715.69;;;18.82
64790;BMP280;51223;51.816;5.862;2022-09-21T10:12:54;102715.41;;;18.61
64790;BMP280;51223;51.816;5.862;2022-09-21T10:15:22;102715.94;;;18.56
64790;BMP280;51223;51.816;5.862;2022-09-21T10:18:04;102712.56;;;18.61
64790;BMP280;51223;51.816;5.862;2022-09-21T10:20:31;102712.97;;;19.37
64790;BMP280;51223;51.816;5.862;2022-09-21T10:22:58;102716.53;;;19.53
64790;BMP280;51223;51.816;5.862;2022-09-21T10:25:25;102715.31;;;19.54
64790;BMP280;51223;51.816;5.862;2022-09-21T10:27:52;102710.22;;;19.62
64790;BMP280;51223;51.816;5.862;2022-09-21T10:32:55;102709.69;;;19.92
64790;BMP280;51223;51.816;5.862;2022-09-21T10:35:21;102697.91;;;20.79
64790;BMP280;51223;51.816;5.862;2022-09-21T10:37:48;102708.38;;;19.55
64790;BMP280;51223;51.816;5.862;2022-09-21T10:42:44;102696.59;;;19.12
64790;BMP280;51223;51.816;5.862;2022-09-21T10:45:17;102699.31;;;19.73
64790;BMP280;51223;51.816;5.862;2022-09-21T10:47:49;102698.22;;;19.54
64790;BMP280;51223;51.816;5.862;2022-09-21T10:50:34;102693.13;;;19.20
64790;BMP280;51223;51.816;5.862;2022-09-21T10:55:41;102689.81;;;19.22
64790;BMP280;51223;51.816;5.862;2022-09-21T10:58:12;102688.88;;;19.12
64790;BMP280;51223;51.816;5.862;2022-09-21T11:00:46;102692.00;;;19.02
64790;BMP280;51223;51.816;5.862;2022-09-21T11:06:16;102701.72;;;18.88
64790;BMP280;51223;51.816;5.862;2022-09-21T11:08:50;102692.22;;;18.62
64790;BMP280;51223;51.816;5.862;2022-09-21T11:14:19;102694.47;;;19.00
64790;BMP280;51223;51.816;5.862;2022-09-21T11:17:06;102693.19;;;18.88
64790;BMP280;51223;51.816;5.862;2022-09-21T11:19:55;102702.09;;;19.48
64790;BMP280;51223;51.816;5.862;2022-09-21T11:22:38;102695.66;;;19.02
64790;BMP280;51223;51.816;5.862;2022-09-21T11:25:49;102702.69;;;18.98
64790;BMP280;51223;51.816;5.862;2022-09-21T11:28:25;102708.91;;;19.92
64790;BMP280;51223;51.816;5.862;2022-09-21T11:34:02;102689.53;;;19.74
64790;BMP280;51223;51.816;5.862;2022-09-21T11:39:57;102691.72;;;19.95
64790;BMP280;51223;51.816;5.862;2022-09-21T11:42:37;102686.00;;;19.70
64790;BMP280;51223;51.816;5.862;2022-09-21T11:45:22;102690.50;;;19.55
64790;BMP280;51223;51.816;5.862;2022-09-21T11:48:00;102685.50;;;19.59
64790;BMP280;51223;51.816;5.862;2022-09-21T11:50:42;102686.81;;;19.96
64790;BMP280;51223;51.816;5.862;2022-09-21T11:53:30;102675.97;;;19.65
64790;BMP280;51223;51.816;5.862;2022-09-21T12:02:21;102673.16;;;19.49
64790;BMP280;51223;51.816;5.862;2022-09-21T12:15:38;102667.00;;;21.42
64790;BMP280;51223;51.816;5.862;2022-09-21T12:21:23;102664.13;;;19.92
64790;BMP280;51223;51.816;5.862;2022-09-21T12:24:00;102658.78;;;20.67
64790;BMP280;51223;51.816;5.862;2022-09-21T12:26:49;102647.63;;;21.16
64790;BMP280;51223;51.816;5.862;2022-09-21T12:29:21;102643.91;;;21.28
64790;BMP280;51223;51.816;5.862;2022-09-21T12:32:04;102648.16;;;20.45
64790;BMP280;51223;51.816;5.862;2022-09-21T12:34:44;102640.25;;;21.49
64790;BMP280;51223;51.816;5.862;2022-09-21T12:37:19;102635.88;;;21.66
64790;BMP280;51223;51.816;5.862;2022-09-21T12:40:14;102639.97;;;21.56
64790;BMP280;51223;51.816;5.862;2022-09-21T12:42:47;102631.13;;;22.21
64790;BMP280;51223;51.816;5.862;2022-09-21T12:45:20;102619.69;;;20.20
64790;BMP280;51223;51.816;5.862;2022-09-21T12:48:07;102617.75;;;20.17
64790;BMP280;51223;51.816;5.862;2022-09-21T12:50:54;102626.66;;;19.68
64790;BMP280;51223;51.816;5.862;2022-09-21T12:53:23;102608.66;;;19.97
64790;BMP280;51223;51.816;5.862;2022-09-21T13:01:42;102611.13;;;20.67
64790;BMP280;51223;51.816;5.862;2022-09-21T13:09:47;102611.25;;;20.16
64790;BMP280;51223;51.816;5.862;2022-09-21T13:12:18;102604.34;;;20.74
64790;BMP280;51223;51.816;5.862;2022-09-21T13:14:47;102606.75;;;21.19
64790;BMP280;51223;51.816;5.862;2022-09-21T13:17:20;102615.25;;;21.31
64790;BMP280;51223;51.816;5.862;2022-09-21T13:20:04;102613.25;;;21.81
64790;BMP280;51223;51.816;5.862;2022-09-21T13:22:33;102603.06;;;21.71
64790;BMP280;51223;51.816;5.862;2022-09-21T13:25:05;102604.00;;;20.84
64790;BMP280;51223;51.816;5.862;2022-09-21T13:33:00;102605.41;;;20.67
64790;BMP280;51223;51.816;5.862;2022-09-21T13:54:19;102576.28;;;20.16
64790;BMP280;51223;51.816;5.862;2022-09-21T13:56:57;102575.59;;;20.12
64790;BMP280;51223;51.816;5.862;2022-09-21T13:59:24;102572.97;;;20.52
64790;BMP280;51223;51.816;5.862;2022-09-21T14:01:53;102581.00;;;20.44
64790;BMP280;51223;51.816;5.862;2022-09-21T14:04:25;102567.75;;;20.50
64790;BMP280;51223;51.816;5.862;2022-09-21T14:06:53;102573.56;;;20.69
64790;BMP280;51223;51.816;5.862;2022-09-21T14:09:26;102566.94;;;20.50
64790;BMP280;51223;51.816;5.862;2022-09-21T14:11:59;102572.53;;;20.06
64790;BMP280;51223;51.816;5.862;2022-09-21T14:16:59;102574.03;;;20.45
64790;BMP280;51223;51.816;5.862;2022-09-21T14:24:38;102575.16;;;20.70
64790;BMP280;51223;51.816;5.862;2022-09-21T14:27:29;102560.72;;;21.87
64790;BMP280;51223;51.816;5.862;2022-09-21T14:30:00;102568.19;;;21.85
64790;BMP280;51223;51.816;5.862;2022-09-21T14:32:43;102560.28;;;21.49
64790;BMP280;51223;51.816;5.862;2022-09-21T14:35:17;102558.56;;;21.51
64790;BMP280;51223;51.816;5.862;2022-09-21T14:38:01;102558.22;;;21.49
64790;BMP280;51223;51.816;5.862;2022-09-21T14:40:34;102559.34;;;22.01
64790;BMP280;51223;51.816;5.862;2022-09-21T14:43:08;102558.59;;;22.28
64790;BMP280;51223;51.816;5.862;2022-09-21T14:45:52;102553.25;;;21.90
64790;BMP280;51223;51.816;5.862;2022-09-21T15:02:19;102539.31;;;20.59
64790;BMP280;51223;51.816;5.862;2022-09-21T15:04:48;102541.97;;;20.76
64790;BMP280;51223;51.816;5.862;2022-09-21T15:10:28;102535.25;;;20.70
64790;BMP280;51223;51.816;5.862;2022-09-21T15:13:19;102533.13;;;20.61
64790;BMP280;51223;51.816;5.862;2022-09-21T15:16:10;102532.81;;;20.25
64790;BMP280;51223;51.816;5.862;2022-09-21T15:18:40;102522.38;;;20.09
64790;BMP280;51223;51.816;5.862;2022-09-21T15:21:35;102525.03;;;19.91
64790;BMP280;51223;51.816;5.862;2022-09-21T15:24:32;102531.94;;;20.15
64790;BMP280;51223;51.816;5.862;2022-09-21T15:27:10;102529.09;;;20.15
64790;BMP280;51223;51.816;5.862;2022-09-21T15:29:37;102528.47;;;19.86
64790;BMP280;51223;51.816;5.862;2022-09-21T15:32:05;102520.16;;;19.79
64790;BMP280;51223;51.816;5.862;2022-09-21T15:34:31;102522.31;;;19.87
64790;BMP280;51223;51.816;5.862;2022-09-21T15:37:13;102521.41;;;19.77
64790;BMP280;51223;51.816;5.862;2022-09-21T15:39:40;102521.28;;;19.81
64790;BMP280;51223;51.816;5.862;2022-09-21T15:44:36;102514.38;;;19.69
64790;BMP280;51223;51.816;5.862;2022-09-21T15:47:06;102518.31;;;19.85
64790;BMP280;51223;51.816;5.862;2022-09-21T15:49:34;102514.56;;;19.75
64790;BMP280;51223;51.816;5.862;2022-09-21T15:52:04;102516.28;;;19.85
64790;BMP280;51223;51.816;5.862;2022-09-21T15:54:47;102515.84;;;19.74
64790;BMP280;51223;51.816;5.862;2022-09-21T15:57:24;102510.03;;;19.52
64790;BMP280;51223;51.816;5.862;2022-09-21T15:59:53;102511.75;;;19.62
64790;BMP280;51223;51.816;5.862;2022-09-21T16:02:23;102512.53;;;19.50
64790;BMP280;51223;51.816;5.862;2022-09-21T16:04:50;102514.13;;;19.51
64790;BMP280;51223;51.816;5.862;2022-09-21T16:09:53;102513.66;;;19.53
64790;BMP280;51223;51.816;5.862;2022-09-21T16:17:37;102511.97;;;19.55
64790;BMP280;51223;51.816;5.862;2022-09-21T16:20:15;102518.44;;;19.18
64790;BMP280;51223;51.816;5.862;2022-09-21T16:22:44;102505.81;;;19.31
64790;BMP280;51223;51.816;5.862;2022-09-21T16:27:53;102502.25;;;19.91
64790;BMP280;51223;51.816;5.862;2022-09-21T16:30:46;102503.03;;;20.04
64790;BMP280;51223;51.816;5.862;2022-09-21T16:33:41;102499.59;;;20.09
64790;BMP280;51223;51.816;5.862;2022-09-21T16:38:53;102500.84;;;19.61
64790;BMP280;51223;51.816;5.862;2022-09-21T16:41:19;102509.09;;;19.81
64790;BMP280;51223;51.816;5.862;2022-09-21T16:43:46;102504.66;;;19.80
64790;BMP280;51223;51.816;5.862;2022-09-21T16:46:12;102505.25;;;19.49
64790;BMP280;51223;51.816;5.862;2022-09-21T16:48:38;102520.16;;;19.41
64790;BMP280;51223;51.816;5.862;2022-09-21T16:51:11;102513.00;;;19.61
64790;BMP280;51223;51.816;5.862;2022-09-21T16:53:37;102526.56;;;19.70
64790;BMP280;51223;51.816;5.862;2022-09-21T16:56:03;102522.78;;;19.48
64790;BMP280;51223;51.816;5.862;2022-09-21T16:58:28;102521.75;;;19.42
64790;BMP280;51223;51.816;5.862;2022-09-21T17:00:54;102525.97;;;19.37
64790;BMP280;51223;51.816;5.862;2022-09-21T17:03:22;102521.53;;;19.49
64790;BMP280;51223;51.816;5.862;2022-09-21T17:05:48;102516.41;;;19.31